sensor_id;sensor_type;location;lat;lon;timestamp;P1;durP1;ratioP1;P2;durP2;ratioP2
80776;SDS011;70169;51.262;6.336;2023-09-18T00:00:54;8.57;;;5.50;;
80776;SDS011;70169;51.262;6.336;2023-09-18T00:03:11;7.55;;;5.00;;
80776;SDS011;70169;51.262;6.336;2023-09-18T00:05:26;6.80;;;5.33;;
80776;SDS011;70169;51.262;6.336;2023-09-18T00:07:42;8.87;;;5.63;;
80776;SDS011;70169;51.262;6.336;2023-09-18T00:09:58;7.22;;;4.93;;
80776;SDS011;70169;51.262;6.336;2023-09-18T00:12:13;7.47;;;5.20;;
80776;SDS011;70169;51.262;6.336;2023-09-18T00:14:29;5.67;;;4.13;;
80776;SDS011;70169;51.262;6.336;2023-09-18T00:16:44;6.90;;;5.30;;
80776;SDS011;70169;51.262;6.336;2023-09-18T00:18:59;5.87;;;4.30;;
80776;SDS011;70169;51.262;6.336;2023-09-18T00:21:16;6.95;;;4.88;;
80776;SDS011;70169;51.262;6.336;2023-09-18T00:23:31;6.07;;;4.40;;
80776;SDS011;70169;51.262;6.336;2023-09-18T00:25:47;5.32;;;4.35;;
80776;SDS011;70169;51.262;6.336;2023-09-18T00:28:02;5.97;;;4.03;;
80776;SDS011;70169;51.262;6.336;2023-09-18T00:30:19;5.10;;;3.83;;
80776;SDS011;70169;51.262;6.336;2023-09-18T00:32:34;7.40;;;4.57;;
80776;SDS011;70169;51.262;6.336;2023-09-18T00:34:49;5.67;;;3.77;;
80776;SDS011;70169;51.262;6.336;2023-09-18T00:37:05;5.55;;;3.95;;
80776;SDS011;70169;51.262;6.336;2023-09-18T00:39:20;6.23;;;4.33;;
80776;SDS011;70169;51.262;6.336;2023-09-18T00:41:36;6.23;;;3.83;;
80776;SDS011;70169;51.262;6.336;2023-09-18T00:43:51;5.88;;;4.15;;
80776;SDS011;70169;51.262;6.336;2023-09-18T00:46:07;5.60;;;4.53;;
80776;SDS011;70169;51.262;6.336;2023-09-18T00:48:23;6.18;;;4.22;;
80776;SDS011;70169;51.262;6.336;2023-09-18T00:50:38;5.63;;;4.00;;
80776;SDS011;70169;51.262;6.336;2023-09-18T00:52:54;5.65;;;4.22;;
80776;SDS011;70169;51.262;6.336;2023-09-18T00:55:10;5.80;;;4.05;;
80776;SDS011;70169;51.262;6.336;2023-09-18T00:57:26;7.43;;;4.45;;
80776;SDS011;70169;51.262;6.336;2023-09-18T00:59:42;6.57;;;4.03;;
80776;SDS011;70169;51.262;6.336;2023-09-18T01:01:57;5.00;;;3.87;;
80776;SDS011;70169;51.262;6.336;2023-09-18T01:04:12;5.60;;;4.53;;
80776;SDS011;70169;51.262;6.336;2023-09-18T01:06:29;5.63;;;4.43;;
80776;SDS011;70169;51.262;6.336;2023-09-18T01:08:45;7.65;;;4.85;;
80776;SDS011;70169;51.262;6.336;2023-09-18T01:13:37;6.72;;;4.50;;
80776;SDS011;70169;51.262;6.336;2023-09-18T01:16:10;6.00;;;4.97;;
80776;SDS011;70169;51.262;6.336;2023-09-18T01:18:32;7.22;;;4.90;;
80776;SDS011;70169;51.262;6.336;2023-09-18T01:20:47;7.00;;;4.60;;
80776;SDS011;70169;51.262;6.336;2023-09-18T01:23:02;6.77;;;4.73;;
80776;SDS011;70169;51.262;6.336;2023-09-18T01:25:18;7.95;;;4.50;;
80776;SDS011;70169;51.262;6.336;2023-09-18T01:27:33;6.25;;;4.68;;
80776;SDS011;70169;51.262;6.336;2023-09-18T01:29:49;5.88;;;4.50;;
80776;SDS011;70169;51.262;6.336;2023-09-18T01:32:04;7.40;;;5.25;;
80776;SDS011;70169;51.262;6.336;2023-09-18T01:34:21;6.18;;;4.97;;
80776;SDS011;70169;51.262;6.336;2023-09-18T01:36:38;6.68;;;4.97;;
80776;SDS011;70169;51.262;6.336;2023-09-18T01:38:54;6.25;;;4.57;;
80776;SDS011;70169;51.262;6.336;2023-09-18T01:41:10;6.53;;;4.72;;
80776;SDS011;70169;51.262;6.336;2023-09-18T01:43:26;6.93;;;4.75;;
80776;SDS011;70169;51.262;6.336;2023-09-18T01:45:41;7.18;;;4.80;;
80776;SDS011;70169;51.262;6.336;2023-09-18T01:47:58;6.90;;;4.82;;
80776;SDS011;70169;51.262;6.336;2023-09-18T01:50:13;5.88;;;4.38;;
80776;SDS011;70169;51.262;6.336;2023-09-18T01:52:31;6.60;;;4.63;;
80776;SDS011;70169;51.262;6.336;2023-09-18T01:54:46;6.80;;;4.40;;
80776;SDS011;70169;51.262;6.336;2023-09-18T01:57:02;6.57;;;4.57;;
80776;SDS011;70169;51.262;6.336;2023-09-18T01:59:19;5.50;;;4.15;;
80776;SDS011;70169;51.262;6.336;2023-09-18T02:01:35;6.32;;;4.30;;
80776;SDS011;70169;51.262;6.336;2023-09-18T02:03:52;6.53;;;4.20;;
80776;SDS011;70169;51.262;6.336;2023-09-18T02:06:08;6.00;;;4.07;;
80776;SDS011;70169;51.262;6.336;2023-09-18T02:08:23;5.53;;;3.75;;
80776;SDS011;70169;51.262;6.336;2023-09-18T02:10:39;6.23;;;3.80;;
80776;SDS011;70169;51.262;6.336;2023-09-18T02:12:54;5.87;;;3.73;;
80776;SDS011;70169;51.262;6.336;2023-09-18T02:15:09;5.07;;;3.47;;
80776;SDS011;70169;51.262;6.336;2023-09-18T02:17:26;5.10;;;3.78;;
80776;SDS011;70169;51.262;6.336;2023-09-18T02:19:41;5.70;;;3.53;;
80776;SDS011;70169;51.262;6.336;2023-09-18T02:24:13;5.43;;;3.73;;
80776;SDS011;70169;51.262;6.336;2023-09-18T02:26:28;6.10;;;4.20;;
80776;SDS011;70169;51.262;6.336;2023-09-18T02:28:44;5.85;;;3.90;;
80776;SDS011;70169;51.262;6.336;2023-09-18T02:31:00;5.47;;;3.72;;
80776;SDS011;70169;51.262;6.336;2023-09-18T02:33:15;5.20;;;4.07;;
80776;SDS011;70169;51.262;6.336;2023-09-18T02:35:31;5.90;;;4.15;;
80776;SDS011;70169;51.262;6.336;2023-09-18T02:37:46;6.00;;;3.87;;
80776;SDS011;70169;51.262;6.336;2023-09-18T02:40:01;5.70;;;3.80;;
80776;SDS011;70169;51.262;6.336;2023-09-18T02:42:17;5.88;;;4.03;;
80776;SDS011;70169;51.262;6.336;2023-09-18T02:44:32;5.80;;;4.33;;
80776;SDS011;70169;51.262;6.336;2023-09-18T02:46:51;6.93;;;4.73;;
80776;SDS011;70169;51.262;6.336;2023-09-18T02:49:06;6.50;;;4.50;;
80776;SDS011;70169;51.262;6.336;2023-09-18T02:51:21;7.95;;;5.13;;
80776;SDS011;70169;51.262;6.336;2023-09-18T02:53:37;7.57;;;5.07;;
80776;SDS011;70169;51.262;6.336;2023-09-18T02:55:53;10.00;;;5.47;;
80776;SDS011;70169;51.262;6.336;2023-09-18T02:58:09;7.38;;;5.13;;
80776;SDS011;70169;51.262;6.336;2023-09-18T03:00:25;7.00;;;5.20;;
80776;SDS011;70169;51.262;6.336;2023-09-18T03:02:40;6.80;;;5.20;;
80776;SDS011;70169;51.262;6.336;2023-09-18T03:04:56;7.95;;;5.47;;
80776;SDS011;70169;51.262;6.336;2023-09-18T03:07:14;8.50;;;5.60;;
80776;SDS011;70169;51.262;6.336;2023-09-18T03:09:31;7.95;;;5.03;;
80776;SDS011;70169;51.262;6.336;2023-09-18T03:11:46;8.15;;;5.10;;
80776;SDS011;70169;51.262;6.336;2023-09-18T03:14:01;11.27;;;6.37;;
80776;SDS011;70169;51.262;6.336;2023-09-18T03:16:17;11.10;;;6.57;;
80776;SDS011;70169;51.262;6.336;2023-09-18T03:18:32;10.13;;;6.63;;
80776;SDS011;70169;51.262;6.336;2023-09-18T03:20:47;8.90;;;5.80;;
80776;SDS011;70169;51.262;6.336;2023-09-18T03:23:03;11.00;;;6.95;;
80776;SDS011;70169;51.262;6.336;2023-09-18T03:25:18;7.95;;;5.63;;
80776;SDS011;70169;51.262;6.336;2023-09-18T03:27:34;8.93;;;5.60;;
80776;SDS011;70169;51.262;6.336;2023-09-18T03:29:49;7.83;;;5.63;;
80776;SDS011;70169;51.262;6.336;2023-09-18T03:32:04;9.27;;;5.50;;
80776;SDS011;70169;51.262;6.336;2023-09-18T03:34:20;9.57;;;5.65;;
80776;SDS011;70169;51.262;6.336;2023-09-18T03:36:35;9.40;;;4.90;;
80776;SDS011;70169;51.262;6.336;2023-09-18T03:38:52;9.63;;;5.30;;
80776;SDS011;70169;51.262;6.336;2023-09-18T03:41:07;7.00;;;4.63;;
80776;SDS011;70169;51.262;6.336;2023-09-18T03:43:22;6.17;;;4.30;;
80776;SDS011;70169;51.262;6.336;2023-09-18T03:45:38;7.43;;;4.63;;
80776;SDS011;70169;51.262;6.336;2023-09-18T03:47:55;6.45;;;4.07;;
80776;SDS011;70169;51.262;6.336;2023-09-18T03:50:11;5.97;;;4.10;;
80776;SDS011;70169;51.262;6.336;2023-09-18T03:52:27;5.18;;;3.85;;
80776;SDS011;70169;51.262;6.336;2023-09-18T03:54:42;5.88;;;3.80;;
80776;SDS011;70169;51.262;6.336;2023-09-18T03:56:57;5.27;;;3.00;;
80776;SDS011;70169;51.262;6.336;2023-09-18T03:59:13;5.83;;;3.67;;
80776;SDS011;70169;51.262;6.336;2023-09-18T04:01:28;6.63;;;4.27;;
80776;SDS011;70169;51.262;6.336;2023-09-18T04:03:44;6.75;;;4.15;;
80776;SDS011;70169;51.262;6.336;2023-09-18T04:05:59;7.00;;;4.47;;
80776;SDS011;70169;51.262;6.336;2023-09-18T04:08:14;5.78;;;4.20;;
80776;SDS011;70169;51.262;6.336;2023-09-18T04:10:30;7.00;;;4.17;;
80776;SDS011;70169;51.262;6.336;2023-09-18T04:12:45;9.27;;;4.47;;
80776;SDS011;70169;51.262;6.336;2023-09-18T04:15:01;9.30;;;4.90;;
80776;SDS011;70169;51.262;6.336;2023-09-18T04:17:17;6.55;;;4.68;;
80776;SDS011;70169;51.262;6.336;2023-09-18T04:19:32;6.30;;;4.30;;
80776;SDS011;70169;51.262;6.336;2023-09-18T04:21:48;5.90;;;3.90;;
80776;SDS011;70169;51.262;6.336;2023-09-18T04:24:03;8.50;;;4.05;;
80776;SDS011;70169;51.262;6.336;2023-09-18T04:26:19;6.28;;;4.05;;
80776;SDS011;70169;51.262;6.336;2023-09-18T04:28:35;7.80;;;3.72;;
80776;SDS011;70169;51.262;6.336;2023-09-18T04:30:50;5.90;;;4.00;;
80776;SDS011;70169;51.262;6.336;2023-09-18T04:33:06;7.97;;;4.20;;
80776;SDS011;70169;51.262;6.336;2023-09-18T04:35:21;4.82;;;3.35;;
80776;SDS011;70169;51.262;6.336;2023-09-18T04:37:40;5.65;;;3.70;;
80776;SDS011;70169;51.262;6.336;2023-09-18T04:39:55;5.63;;;3.43;;
80776;SDS011;70169;51.262;6.336;2023-09-18T04:42:12;5.40;;;3.47;;
80776;SDS011;70169;51.262;6.336;2023-09-18T04:44:27;6.63;;;3.77;;
80776;SDS011;70169;51.262;6.336;2023-09-18T04:46:43;8.17;;;4.20;;
80776;SDS011;70169;51.262;6.336;2023-09-18T04:48:58;6.43;;;3.53;;
80776;SDS011;70169;51.262;6.336;2023-09-18T04:51:13;7.03;;;3.40;;
80776;SDS011;70169;51.262;6.336;2023-09-18T04:53:29;6.37;;;3.47;;
80776;SDS011;70169;51.262;6.336;2023-09-18T04:55:45;6.90;;;3.28;;
80776;SDS011;70169;51.262;6.336;2023-09-18T04:58:04;5.75;;;3.28;;
80776;SDS011;70169;51.262;6.336;2023-09-18T05:00:20;5.95;;;3.42;;
80776;SDS011;70169;51.262;6.336;2023-09-18T05:02:38;5.30;;;3.05;;
80776;SDS011;70169;51.262;6.336;2023-09-18T05:04:55;6.13;;;3.50;;
80776;SDS011;70169;51.262;6.336;2023-09-18T05:07:11;6.00;;;3.78;;
80776;SDS011;70169;51.262;6.336;2023-09-18T05:09:26;6.87;;;3.37;;
80776;SDS011;70169;51.262;6.336;2023-09-18T05:11:42;5.50;;;3.28;;
80776;SDS011;70169;51.262;6.336;2023-09-18T05:13:57;5.17;;;3.40;;
80776;SDS011;70169;51.262;6.336;2023-09-18T05:16:12;6.00;;;3.50;;
80776;SDS011;70169;51.262;6.336;2023-09-18T05:18:28;9.50;;;3.78;;
80776;SDS011;70169;51.262;6.336;2023-09-18T05:20:43;8.50;;;3.93;;
80776;SDS011;70169;51.262;6.336;2023-09-18T05:22:59;7.53;;;3.93;;
80776;SDS011;70169;51.262;6.336;2023-09-18T05:25:15;6.82;;;3.63;;
80776;SDS011;70169;51.262;6.336;2023-09-18T05:27:30;7.65;;;3.50;;
80776;SDS011;70169;51.262;6.336;2023-09-18T05:29:46;6.90;;;3.70;;
80776;SDS011;70169;51.262;6.336;2023-09-18T05:32:01;6.73;;;3.33;;
80776;SDS011;70169;51.262;6.336;2023-09-18T05:34:17;6.68;;;3.20;;
80776;SDS011;70169;51.262;6.336;2023-09-18T05:36:32;6.97;;;2.90;;
80776;SDS011;70169;51.262;6.336;2023-09-18T05:38:48;5.00;;;3.05;;
80776;SDS011;70169;51.262;6.336;2023-09-18T05:41:04;6.03;;;2.80;;
80776;SDS011;70169;51.262;6.336;2023-09-18T05:43:20;5.80;;;2.97;;
80776;SDS011;70169;51.262;6.336;2023-09-18T05:45:35;4.53;;;2.33;;
80776;SDS011;70169;51.262;6.336;2023-09-18T05:47:50;5.50;;;2.73;;
80776;SDS011;70169;51.262;6.336;2023-09-18T05:50:08;4.40;;;2.28;;
80776;SDS011;70169;51.262;6.336;2023-09-18T05:52:29;5.63;;;2.47;;
80776;SDS011;70169;51.262;6.336;2023-09-18T05:54:45;8.18;;;3.03;;
80776;SDS011;70169;51.262;6.336;2023-09-18T05:57:00;5.50;;;2.27;;
80776;SDS011;70169;51.262;6.336;2023-09-18T05:59:16;5.63;;;2.40;;
80776;SDS011;70169;51.262;6.336;2023-09-18T06:01:34;4.75;;;2.40;;
80776;SDS011;70169;51.262;6.336;2023-09-18T06:03:49;5.63;;;2.10;;
80776;SDS011;70169;51.262;6.336;2023-09-18T06:06:04;5.13;;;2.37;;
80776;SDS011;70169;51.262;6.336;2023-09-18T06:08:20;3.95;;;1.80;;
80776;SDS011;70169;51.262;6.336;2023-09-18T06:10:36;4.23;;;2.30;;
80776;SDS011;70169;51.262;6.336;2023-09-18T06:12:51;4.57;;;2.20;;
80776;SDS011;70169;51.262;6.336;2023-09-18T06:15:07;4.53;;;1.90;;
80776;SDS011;70169;51.262;6.336;2023-09-18T06:17:25;4.13;;;1.95;;
80776;SDS011;70169;51.262;6.336;2023-09-18T06:19:40;3.97;;;2.22;;
80776;SDS011;70169;51.262;6.336;2023-09-18T06:21:56;3.78;;;1.92;;
80776;SDS011;70169;51.262;6.336;2023-09-18T06:24:11;4.23;;;2.03;;
80776;SDS011;70169;51.262;6.336;2023-09-18T06:26:27;4.80;;;1.75;;
80776;SDS011;70169;51.262;6.336;2023-09-18T06:28:42;3.63;;;1.80;;
80776;SDS011;70169;51.262;6.336;2023-09-18T06:30:58;5.35;;;1.85;;
80776;SDS011;70169;51.262;6.336;2023-09-18T06:33:13;6.50;;;1.83;;
80776;SDS011;70169;51.262;6.336;2023-09-18T06:35:29;3.33;;;1.77;;
80776;SDS011;70169;51.262;6.336;2023-09-18T06:37:44;4.38;;;1.70;;
80776;SDS011;70169;51.262;6.336;2023-09-18T06:40:00;6.20;;;2.03;;
80776;SDS011;70169;51.262;6.336;2023-09-18T06:42:18;4.97;;;1.85;;
80776;SDS011;70169;51.262;6.336;2023-09-18T06:44:34;5.13;;;1.98;;
80776;SDS011;70169;51.262;6.336;2023-09-18T06:46:49;5.20;;;1.97;;
80776;SDS011;70169;51.262;6.336;2023-09-18T06:49:04;3.83;;;1.77;;
80776;SDS011;70169;51.262;6.336;2023-09-18T06:51:20;3.13;;;1.60;;
80776;SDS011;70169;51.262;6.336;2023-09-18T06:53:35;4.00;;;1.58;;
80776;SDS011;70169;51.262;6.336;2023-09-18T06:55:50;3.30;;;1.83;;
80776;SDS011;70169;51.262;6.336;2023-09-18T06:58:06;3.63;;;1.50;;
80776;SDS011;70169;51.262;6.336;2023-09-18T07:00:21;3.17;;;1.60;;
80776;SDS011;70169;51.262;6.336;2023-09-18T07:02:36;2.90;;;1.80;;
80776;SDS011;70169;51.262;6.336;2023-09-18T07:04:52;2.60;;;1.60;;
80776;SDS011;70169;51.262;6.336;2023-09-18T07:07:07;3.65;;;1.52;;
80776;SDS011;70169;51.262;6.336;2023-09-18T07:09:23;3.53;;;1.80;;
80776;SDS011;70169;51.262;6.336;2023-09-18T07:11:39;4.70;;;1.90;;
80776;SDS011;70169;51.262;6.336;2023-09-18T07:13:55;3.73;;;1.53;;
80776;SDS011;70169;51.262;6.336;2023-09-18T07:16:10;4.72;;;1.98;;
80776;SDS011;70169;51.262;6.336;2023-09-18T07:18:26;5.93;;;1.73;;
80776;SDS011;70169;51.262;6.336;2023-09-18T07:20:41;4.37;;;1.93;;
80776;SDS011;70169;51.262;6.336;2023-09-18T07:22:59;5.43;;;1.70;;
80776;SDS011;70169;51.262;6.336;2023-09-18T07:25:14;5.70;;;2.00;;
80776;SDS011;70169;51.262;6.336;2023-09-18T07:27:30;4.80;;;1.70;;
80776;SDS011;70169;51.262;6.336;2023-09-18T07:29:45;5.67;;;1.83;;
80776;SDS011;70169;51.262;6.336;2023-09-18T07:32:01;6.83;;;2.00;;
80776;SDS011;70169;51.262;6.336;2023-09-18T07:34:16;6.32;;;1.70;;
80776;SDS011;70169;51.262;6.336;2023-09-18T07:36:32;3.92;;;1.60;;
80776;SDS011;70169;51.262;6.336;2023-09-18T07:38:47;5.80;;;1.50;;
80776;SDS011;70169;51.262;6.336;2023-09-18T07:41:03;5.20;;;1.60;;
80776;SDS011;70169;51.262;6.336;2023-09-18T07:43:18;4.88;;;1.90;;
80776;SDS011;70169;51.262;6.336;2023-09-18T07:45:34;4.77;;;1.93;;
80776;SDS011;70169;51.262;6.336;2023-09-18T07:47:49;3.07;;;1.70;;
80776;SDS011;70169;51.262;6.336;2023-09-18T07:50:05;4.55;;;1.77;;
80776;SDS011;70169;51.262;6.336;2023-09-18T07:52:21;4.65;;;2.10;;
80776;SDS011;70169;51.262;6.336;2023-09-18T07:54:36;2.90;;;1.70;;
80776;SDS011;70169;51.262;6.336;2023-09-18T07:56:52;3.63;;;1.93;;
80776;SDS011;70169;51.262;6.336;2023-09-18T07:59:07;3.57;;;1.57;;
80776;SDS011;70169;51.262;6.336;2023-09-18T08:01:22;4.20;;;2.27;;
80776;SDS011;70169;51.262;6.336;2023-09-18T08:03:38;3.65;;;1.77;;
80776;SDS011;70169;51.262;6.336;2023-09-18T08:05:53;3.10;;;1.70;;
80776;SDS011;70169;51.262;6.336;2023-09-18T08:08:09;3.72;;;1.70;;
80776;SDS011;70169;51.262;6.336;2023-09-18T08:10:25;4.33;;;1.70;;
80776;SDS011;70169;51.262;6.336;2023-09-18T08:12:41;3.33;;;1.58;;
80776;SDS011;70169;51.262;6.336;2023-09-18T08:14:56;2.90;;;1.53;;
80776;SDS011;70169;51.262;6.336;2023-09-18T08:17:13;4.35;;;1.70;;
80776;SDS011;70169;51.262;6.336;2023-09-18T08:19:29;4.30;;;1.57;;
80776;SDS011;70169;51.262;6.336;2023-09-18T08:21:44;3.50;;;1.73;;
80776;SDS011;70169;51.262;6.336;2023-09-18T08:23:59;3.67;;;1.73;;
80776;SDS011;70169;51.262;6.336;2023-09-18T08:26:15;5.83;;;1.93;;
80776;SDS011;70169;51.262;6.336;2023-09-18T08:28:33;4.60;;;1.70;;
80776;SDS011;70169;51.262;6.336;2023-09-18T08:30:50;4.72;;;1.90;;
80776;SDS011;70169;51.262;6.336;2023-09-18T08:33:06;3.67;;;2.00;;
80776;SDS011;70169;51.262;6.336;2023-09-18T08:35:21;4.73;;;2.00;;
80776;SDS011;70169;51.262;6.336;2023-09-18T08:37:37;5.15;;;1.80;;
80776;SDS011;70169;51.262;6.336;2023-09-18T08:39:53;3.87;;;1.87;;
80776;SDS011;70169;51.262;6.336;2023-09-18T08:42:08;6.22;;;2.08;;
80776;SDS011;70169;51.262;6.336;2023-09-18T08:44:26;3.75;;;1.70;;
80776;SDS011;70169;51.262;6.336;2023-09-18T08:48:58;3.00;;;1.50;;
80776;SDS011;70169;51.262;6.336;2023-09-18T08:51:14;5.82;;;1.50;;
80776;SDS011;70169;51.262;6.336;2023-09-18T08:53:31;4.38;;;1.77;;
80776;SDS011;70169;51.262;6.336;2023-09-18T08:55:48;5.07;;;1.60;;
80776;SDS011;70169;51.262;6.336;2023-09-18T08:58:03;3.95;;;1.85;;
80776;SDS011;70169;51.262;6.336;2023-09-18T09:00:21;6.72;;;1.98;;
80776;SDS011;70169;51.262;6.336;2023-09-18T09:02:36;3.67;;;1.50;;
80776;SDS011;70169;51.262;6.336;2023-09-18T09:04:52;2.97;;;1.50;;
80776;SDS011;70169;51.262;6.336;2023-09-18T09:07:07;2.80;;;1.50;;
80776;SDS011;70169;51.262;6.336;2023-09-18T09:09:23;3.83;;;1.90;;
80776;SDS011;70169;51.262;6.336;2023-09-18T09:11:39;3.20;;;1.33;;
80776;SDS011;70169;51.262;6.336;2023-09-18T09:14:11;3.35;;;1.50;;
80776;SDS011;70169;51.262;6.336;2023-09-18T09:16:31;5.05;;;1.95;;
80776;SDS011;70169;51.262;6.336;2023-09-18T09:18:49;3.00;;;1.60;;
80776;SDS011;70169;51.262;6.336;2023-09-18T09:21:05;3.72;;;1.88;;
80776;SDS011;70169;51.262;6.336;2023-09-18T09:23:21;7.35;;;1.98;;
80776;SDS011;70169;51.262;6.336;2023-09-18T09:25:36;3.60;;;1.87;;
80776;SDS011;70169;51.262;6.336;2023-09-18T09:27:54;2.77;;;1.47;;
80776;SDS011;70169;51.262;6.336;2023-09-18T09:30:10;3.17;;;1.70;;
80776;SDS011;70169;51.262;6.336;2023-09-18T09:32:27;4.20;;;1.55;;
80776;SDS011;70169;51.262;6.336;2023-09-18T09:34:46;4.20;;;1.73;;
80776;SDS011;70169;51.262;6.336;2023-09-18T09:37:02;3.63;;;1.80;;
80776;SDS011;70169;51.262;6.336;2023-09-18T09:39:19;3.28;;;1.70;;
80776;SDS011;70169;51.262;6.336;2023-09-18T09:41:36;2.95;;;1.60;;
80776;SDS011;70169;51.262;6.336;2023-09-18T09:43:52;3.53;;;1.60;;
80776;SDS011;70169;51.262;6.336;2023-09-18T09:46:14;3.67;;;2.00;;
80776;SDS011;70169;51.262;6.336;2023-09-18T09:48:36;4.85;;;1.70;;
80776;SDS011;70169;51.262;6.336;2023-09-18T09:50:57;4.75;;;1.80;;
80776;SDS011;70169;51.262;6.336;2023-09-18T09:53:14;4.70;;;2.03;;
80776;SDS011;70169;51.262;6.336;2023-09-18T09:55:31;3.60;;;1.77;;
80776;SDS011;70169;51.262;6.336;2023-09-18T09:57:49;3.17;;;1.70;;
80776;SDS011;70169;51.262;6.336;2023-09-18T10:00:09;3.75;;;1.58;;
80776;SDS011;70169;51.262;6.336;2023-09-18T10:02:37;7.47;;;2.00;;
80776;SDS011;70169;51.262;6.336;2023-09-18T10:04:52;4.67;;;1.90;;
80776;SDS011;70169;51.262;6.336;2023-09-18T10:07:08;4.43;;;1.93;;
80776;SDS011;70169;51.262;6.336;2023-09-18T10:09:24;5.30;;;2.13;;
80776;SDS011;70169;51.262;6.336;2023-09-18T10:11:45;4.38;;;2.35;;
80776;SDS011;70169;51.262;6.336;2023-09-18T10:14:08;5.35;;;2.63;;
80776;SDS011;70169;51.262;6.336;2023-09-18T10:16:28;4.20;;;1.95;;
80776;SDS011;70169;51.262;6.336;2023-09-18T10:19:21;5.78;;;2.10;;
80776;SDS011;70169;51.262;6.336;2023-09-18T10:24:25;3.58;;;2.13;;
80776;SDS011;70169;51.262;6.336;2023-09-18T10:29:03;3.78;;;1.88;;
80776;SDS011;70169;51.262;6.336;2023-09-18T10:31:20;5.43;;;2.10;;
80776;SDS011;70169;51.262;6.336;2023-09-18T10:33:36;5.32;;;2.40;;
80776;SDS011;70169;51.262;6.336;2023-09-18T10:35:53;6.13;;;2.22;;
80776;SDS011;70169;51.262;6.336;2023-09-18T10:38:10;4.45;;;2.20;;
80776;SDS011;70169;51.262;6.336;2023-09-18T10:40:26;4.40;;;2.05;;
80776;SDS011;70169;51.262;6.336;2023-09-18T10:42:45;3.38;;;2.00;;
80776;SDS011;70169;51.262;6.336;2023-09-18T10:45:02;5.03;;;2.33;;
80776;SDS011;70169;51.262;6.336;2023-09-18T10:47:25;4.93;;;2.00;;
80776;SDS011;70169;51.262;6.336;2023-09-18T10:49:42;5.18;;;2.03;;
80776;SDS011;70169;51.262;6.336;2023-09-18T10:51:57;3.38;;;2.08;;
80776;SDS011;70169;51.262;6.336;2023-09-18T10:54:15;4.53;;;2.03;;
80776;SDS011;70169;51.262;6.336;2023-09-18T10:56:31;4.97;;;2.05;;
80776;SDS011;70169;51.262;6.336;2023-09-18T10:58:55;5.80;;;2.22;;
80776;SDS011;70169;51.262;6.336;2023-09-18T11:01:12;4.55;;;2.20;;
80776;SDS011;70169;51.262;6.336;2023-09-18T11:03:28;5.82;;;2.05;;
80776;SDS011;70169;51.262;6.336;2023-09-18T11:05:44;4.57;;;2.20;;
80776;SDS011;70169;51.262;6.336;2023-09-18T11:08:24;5.35;;;2.35;;
80776;SDS011;70169;51.262;6.336;2023-09-18T11:11:26;4.22;;;2.20;;
80776;SDS011;70169;51.262;6.336;2023-09-18T11:13:29;5.53;;;2.05;;
80776;SDS011;70169;51.262;6.336;2023-09-18T11:15:45;4.18;;;2.50;;
80776;SDS011;70169;51.262;6.336;2023-09-18T11:18:01;5.50;;;1.93;;
80776;SDS011;70169;51.262;6.336;2023-09-18T11:20:18;3.97;;;2.10;;
80776;SDS011;70169;51.262;6.336;2023-09-18T11:22:39;6.07;;;2.47;;
80776;SDS011;70169;51.262;6.336;2023-09-18T11:25:15;4.10;;;2.35;;
80776;SDS011;70169;51.262;6.336;2023-09-18T11:27:56;4.13;;;2.25;;
80776;SDS011;70169;51.262;6.336;2023-09-18T11:30:13;3.50;;;2.28;;
80776;SDS011;70169;51.262;6.336;2023-09-18T11:32:38;4.55;;;2.40;;
80776;SDS011;70169;51.262;6.336;2023-09-18T11:35:06;8.40;;;2.65;;
80776;SDS011;70169;51.262;6.336;2023-09-18T11:37:22;6.25;;;2.33;;
80776;SDS011;70169;51.262;6.336;2023-09-18T11:39:40;3.63;;;2.13;;
80776;SDS011;70169;51.262;6.336;2023-09-18T11:42:05;4.57;;;2.17;;
80776;SDS011;70169;51.262;6.336;2023-09-18T11:44:33;6.18;;;2.60;;
80776;SDS011;70169;51.262;6.336;2023-09-18T11:46:51;5.22;;;2.67;;
80776;SDS011;70169;51.262;6.336;2023-09-18T11:49:07;4.95;;;2.30;;
80776;SDS011;70169;51.262;6.336;2023-09-18T11:51:25;4.00;;;2.15;;
80776;SDS011;70169;51.262;6.336;2023-09-18T11:53:48;4.13;;;2.08;;
80776;SDS011;70169;51.262;6.336;2023-09-18T11:56:10;3.53;;;1.83;;
80776;SDS011;70169;51.262;6.336;2023-09-18T11:58:38;11.60;;;2.10;;
80776;SDS011;70169;51.262;6.336;2023-09-18T12:00:59;4.88;;;2.55;;
80776;SDS011;70169;51.262;6.336;2023-09-18T12:03:27;6.10;;;2.08;;
80776;SDS011;70169;51.262;6.336;2023-09-18T12:05:43;6.32;;;2.17;;
80776;SDS011;70169;51.262;6.336;2023-09-18T12:07:59;4.15;;;2.75;;
80776;SDS011;70169;51.262;6.336;2023-09-18T12:10:15;4.90;;;2.20;;
80776;SDS011;70169;51.262;6.336;2023-09-18T12:12:32;4.88;;;2.03;;
80776;SDS011;70169;51.262;6.336;2023-09-18T12:14:47;6.83;;;2.23;;
80776;SDS011;70169;51.262;6.336;2023-09-18T12:17:03;5.32;;;2.08;;
80776;SDS011;70169;51.262;6.336;2023-09-18T12:19:19;4.13;;;2.03;;
80776;SDS011;70169;51.262;6.336;2023-09-18T12:21:40;4.82;;;2.33;;
80776;SDS011;70169;51.262;6.336;2023-09-18T12:23:56;5.50;;;2.38;;
80776;SDS011;70169;51.262;6.336;2023-09-18T12:26:12;5.43;;;2.40;;
80776;SDS011;70169;51.262;6.336;2023-09-18T12:28:29;4.03;;;1.65;;
80776;SDS011;70169;51.262;6.336;2023-09-18T12:30:44;4.65;;;2.25;;
80776;SDS011;70169;51.262;6.336;2023-09-18T12:33:01;4.18;;;2.00;;
80776;SDS011;70169;51.262;6.336;2023-09-18T12:35:18;3.38;;;2.00;;
80776;SDS011;70169;51.262;6.336;2023-09-18T12:37:34;3.28;;;1.85;;
80776;SDS011;70169;51.262;6.336;2023-09-18T13:00:09;3.95;;;2.03;;
80776;SDS011;70169;51.262;6.336;2023-09-18T13:02:28;4.40;;;2.25;;
80776;SDS011;70169;51.262;6.336;2023-09-18T13:04:53;4.27;;;1.90;;
80776;SDS011;70169;51.262;6.336;2023-09-18T13:07:10;3.42;;;2.00;;
80776;SDS011;70169;51.262;6.336;2023-09-18T13:09:27;5.70;;;2.58;;
80776;SDS011;70169;51.262;6.336;2023-09-18T13:11:53;6.00;;;2.20;;
80776;SDS011;70169;51.262;6.336;2023-09-18T13:14:10;3.70;;;2.13;;
80776;SDS011;70169;51.262;6.336;2023-09-18T13:16:25;4.60;;;2.10;;
80776;SDS011;70169;51.262;6.336;2023-09-18T13:18:41;3.67;;;1.80;;
80776;SDS011;70169;51.262;6.336;2023-09-18T13:20:56;4.10;;;2.13;;
80776;SDS011;70169;51.262;6.336;2023-09-18T13:23:12;4.22;;;1.85;;
80776;SDS011;70169;51.262;6.336;2023-09-18T13:25:28;5.33;;;2.03;;
80776;SDS011;70169;51.262;6.336;2023-09-18T13:27:45;4.47;;;1.80;;
80776;SDS011;70169;51.262;6.336;2023-09-18T13:30:01;5.82;;;1.70;;
80776;SDS011;70169;51.262;6.336;2023-09-18T13:32:21;3.90;;;1.90;;
80776;SDS011;70169;51.262;6.336;2023-09-18T13:34:37;5.63;;;2.17;;
80776;SDS011;70169;51.262;6.336;2023-09-18T13:36:54;6.35;;;2.10;;
80776;SDS011;70169;51.262;6.336;2023-09-18T13:39:09;4.10;;;2.00;;
80776;SDS011;70169;51.262;6.336;2023-09-18T13:41:24;5.07;;;1.90;;
80776;SDS011;70169;51.262;6.336;2023-09-18T13:43:40;3.57;;;1.70;;
80776;SDS011;70169;51.262;6.336;2023-09-18T13:45:55;4.13;;;2.10;;
80776;SDS011;70169;51.262;6.336;2023-09-18T13:48:12;2.88;;;1.98;;
80776;SDS011;70169;51.262;6.336;2023-09-18T13:50:27;5.10;;;1.83;;
80776;SDS011;70169;51.262;6.336;2023-09-18T13:52:43;5.18;;;1.90;;
80776;SDS011;70169;51.262;6.336;2023-09-18T13:54:58;3.83;;;2.20;;
80776;SDS011;70169;51.262;6.336;2023-09-18T13:57:13;4.93;;;1.90;;
80776;SDS011;70169;51.262;6.336;2023-09-18T13:59:29;4.27;;;2.20;;
80776;SDS011;70169;51.262;6.336;2023-09-18T14:01:44;3.70;;;2.00;;
80776;SDS011;70169;51.262;6.336;2023-09-18T14:03:59;4.40;;;2.20;;
80776;SDS011;70169;51.262;6.336;2023-09-18T14:06:14;5.72;;;1.95;;
80776;SDS011;70169;51.262;6.336;2023-09-18T14:08:30;2.90;;;1.63;;
80776;SDS011;70169;51.262;6.336;2023-09-18T14:10:45;4.80;;;1.90;;
80776;SDS011;70169;51.262;6.336;2023-09-18T14:13:00;3.20;;;1.90;;
80776;SDS011;70169;51.262;6.336;2023-09-18T14:15:16;4.27;;;1.90;;
80776;SDS011;70169;51.262;6.336;2023-09-18T14:17:31;3.23;;;1.90;;